createdAt,value
2022-09-23T00:02:21.049Z,101916.63
2022-09-23T00:04:53.183Z,101922.06
2022-09-23T00:07:25.151Z,101920.56
2022-09-23T00:09:58.814Z,101919.53
2022-09-23T00:12:30.627Z,101921.41
2022-09-23T00:15:03.890Z,101914.63
2022-09-23T00:17:35.723Z,101904.63
2022-09-23T00:20:09.370Z,101908.53
2022-09-23T00:22:41.380Z,101906.66
2022-09-23T00:25:13.332Z,101905.81
2022-09-23T00:27:46.199Z,101907.50
2022-09-23T00:30:18.478Z,101902.25
2022-09-23T00:32:50.426Z,101903.47
2022-09-23T00:35:22.515Z,101900.06
2022-09-23T00:37:54.363Z,101899.38
2022-09-23T00:40:26.292Z,101898.34
2022-09-23T00:42:58.363Z,101893.13
2022-09-23T00:45:30.311Z,101884.13
2022-09-23T00:48:02.874Z,101890.75
2022-09-23T00:50:37.999Z,101896.53
2022-09-23T00:53:12.757Z,101893.63
2022-09-23T00:55:49.864Z,101881.09
2022-09-23T00:58:26.809Z,101877.88
2022-09-23T01:01:02.735Z,101884.50
2022-09-23T01:03:35.213Z,101876.72
2022-09-23T01:06:07.310Z,101883.34
2022-09-23T01:08:40.494Z,101880.81
2022-09-23T01:11:24.186Z,101865.34
2022-09-23T01:14:01.815Z,101869.94
2022-09-23T01:16:48.226Z,101858.44
2022-09-23T01:19:43.769Z,101864.88
2022-09-23T01:22:34.298Z,101862.53
2022-09-23T01:25:13.392Z,101852.69
2022-09-23T01:27:56.312Z,101856.03
2022-09-23T01:30:44.845Z,101853.00
2022-09-23T01:33:30.461Z,101857.41
2022-09-23T01:36:10.083Z,101848.22
2022-09-23T01:38:41.981Z,101846.53
2022-09-23T01:41:32.134Z,101840.06
2022-09-23T01:44:09.880Z,101837.34
2022-09-23T01:46:48.370Z,101838.41
2022-09-23T01:49:29.022Z,101839.41
2022-09-23T01:52:09.622Z,101834.50
2022-09-23T01:55:08.629Z,101837.41
2022-09-23T01:57:43.969Z,101833.00
2022-09-23T02:00:17.740Z,101826.22
2022-09-23T02:02:56.365Z,101825.38
2022-09-23T02:05:33.154Z,101825.53
2022-09-23T02:08:13.311Z,101824.03
2022-09-23T02:11:07.851Z,101827.94
2022-09-23T02:13:50.680Z,101814.75
2022-09-23T02:16:32.206Z,101814.91
2022-09-23T02:19:27.386Z,101806.97
2022-09-23T02:22:09.269Z,101810.69
2022-09-23T02:24:41.801Z,101810.00
2022-09-23T02:27:26.443Z,101804.94
2022-09-23T02:30:12.622Z,101795.28
2022-09-23T02:32:54.746Z,101797.13
2022-09-23T02:35:49.428Z,101798.19
2022-09-23T02:38:52.314Z,101794.78
2022-09-23T02:41:52.125Z,101793.28
2022-09-23T02:44:24.404Z,101795.16
2022-09-23T02:46:57.799Z,101796.81
2022-09-23T02:49:31.636Z,101782.59
2022-09-23T02:52:04.988Z,101787.19
2022-09-23T02:54:37.410Z,101786.31
2022-09-23T02:57:09.721Z,101782.91
2022-09-23T02:59:41.729Z,101784.97
2022-09-23T03:02:24.239Z,101780.38
2022-09-23T03:05:30.146Z,101773.78
2022-09-23T03:08:19.245Z,101780.72
2022-09-23T03:11:15.225Z,101777.16
2022-09-23T03:14:07.188Z,101765.94
2022-09-23T03:16:47.707Z,101763.91
2022-09-23T03:19:35.791Z,101774.78
2022-09-23T03:22:14.946Z,101761.84
2022-09-23T03:24:51.872Z,101754.38
2022-09-23T03:27:29.104Z,101751.66
2022-09-23T03:30:01.343Z,101752.34
2022-09-23T03:32:34.840Z,101747.75
2022-09-23T03:35:07.206Z,101748.56
2022-09-23T03:37:51.107Z,101744.00
2022-09-23T03:40:27.163Z,101745.53
2022-09-23T03:43:01.405Z,101746.16
2022-09-23T03:45:34.424Z,101739.06
2022-09-23T03:48:07.139Z,101739.06
2022-09-23T03:50:39.294Z,101738.03
2022-09-23T03:53:13.803Z,101746.16
2022-09-23T03:55:46.627Z,101737.38
2022-09-23T03:58:18.940Z,101737.53
2022-09-23T04:00:50.935Z,101735.00
2022-09-23T04:03:22.979Z,101726.03
2022-09-23T04:05:55.052Z,101721.81
2022-09-23T04:08:27.338Z,101733.88
2022-09-23T04:11:02.737Z,101721.50
2022-09-23T04:13:34.701Z,101724.22
2022-09-23T04:16:06.812Z,101722.50
2022-09-23T04:18:38.757Z,101713.88
2022-09-23T04:21:10.663Z,101717.75
2022-09-23T04:23:42.816Z,101704.19
2022-09-23T04:26:15.051Z,101714.41
2022-09-23T04:28:47.608Z,101705.56
2022-09-23T04:31:19.733Z,101701.16
2022-09-23T04:33:54.760Z,101707.63
2022-09-23T04:36:26.892Z,101703.41
2022-09-23T04:38:58.779Z,101697.13
2022-09-23T04:41:30.819Z,101700.03
2022-09-23T04:44:02.807Z,101698.34
2022-09-23T04:46:34.913Z,101697.13
2022-09-23T04:49:07.642Z,101695.94
2022-09-23T04:51:43.282Z,101694.06
2022-09-23T04:54:15.170Z,101693.00
2022-09-23T04:56:47.228Z,101699.13
2022-09-23T04:59:19.353Z,101692.69
2022-09-23T05:01:52.077Z,101694.38
2022-09-23T05:04:24.578Z,101693.00
2022-09-23T05:06:59.506Z,101695.72
2022-09-23T05:09:34.927Z,101687.25
2022-09-23T05:12:06.972Z,101693.31
2022-09-23T05:14:41.892Z,101694.03
2022-09-23T05:17:14.746Z,101688.44
2022-09-23T05:19:46.726Z,101692.00
2022-09-23T05:22:18.608Z,101690.94
2022-09-23T05:24:50.494Z,101691.63
2022-09-23T05:27:22.550Z,101693.66
2022-09-23T05:29:54.582Z,101682.47
2022-09-23T05:32:26.547Z,101686.19
2022-09-23T05:34:58.719Z,101689.94
2022-09-23T05:37:33.117Z,101684.50
2022-09-23T05:40:05.856Z,101688.22
2022-09-23T05:42:37.974Z,101686.19
2022-09-23T05:45:09.989Z,101686.19
2022-09-23T05:47:42.072Z,101680.78
2022-09-23T05:50:14.060Z,101679.91
2022-09-23T05:52:46.034Z,101687.91
2022-09-23T05:55:18.040Z,101686.88
2022-09-23T05:57:50.087Z,101691.09
2022-09-23T06:00:22.065Z,101690.06
2022-09-23T06:02:54.135Z,101681.06
2022-09-23T06:05:26.244Z,101683.78
2022-09-23T06:07:58.421Z,101676.50
2022-09-23T06:10:30.461Z,101675.47
2022-09-23T06:13:02.526Z,101674.47
2022-09-23T06:15:35.045Z,101675.28
2022-09-23T06:18:07.049Z,101681.22
2022-09-23T06:20:39.481Z,101679.34
2022-09-23T06:23:11.903Z,101676.44
2022-09-23T06:25:43.759Z,101670.34
2022-09-23T06:28:19.929Z,101676.78
2022-09-23T06:30:57.619Z,101667.13
2022-09-23T06:33:36.623Z,101681.75
2022-09-23T06:36:09.609Z,101687.53
2022-09-23T06:38:44.751Z,101674.16
2022-09-23T06:41:16.942Z,101676.03
2022-09-23T06:43:48.987Z,101680.78
2022-09-23T06:46:21.206Z,101675.34
2022-09-23T06:48:53.306Z,101680.94
2022-09-23T06:51:25.714Z,101680.78
2022-09-23T06:53:57.651Z,101679.06
2022-09-23T06:56:31.570Z,101681.78
2022-09-23T06:59:09.981Z,101679.06
2022-09-23T07:01:42.149Z,101679.44
2022-09-23T07:04:14.600Z,101678.94
2022-09-23T07:06:46.739Z,101681.81
2022-09-23T07:09:19.503Z,101676.22
2022-09-23T07:11:55.482Z,101686.03
2022-09-23T07:14:27.460Z,101688.59
2022-09-23T07:16:59.989Z,101680.09
2022-09-23T07:19:31.991Z,101680.78
2022-09-23T07:22:04.999Z,101681.06
2022-09-23T07:24:37.357Z,101675.94
2022-09-23T07:27:09.619Z,101680.66
2022-09-23T07:29:48.754Z,101668.88
2022-09-23T07:32:24.435Z,101683.25
2022-09-23T07:34:57.593Z,101688.63
2022-09-23T07:37:29.545Z,101686.50
2022-09-23T07:40:01.991Z,101687.22
2022-09-23T07:42:35.219Z,101685.66
2022-09-23T07:45:09.002Z,101687.06
2022-09-23T07:47:41.202Z,101686.72
2022-09-23T07:50:13.218Z,101688.00
2022-09-23T07:52:45.339Z,101680.31
2022-09-23T07:55:21.012Z,101680.13
2022-09-23T07:57:53.557Z,101683.53
2022-09-23T08:00:25.739Z,101684.16
2022-09-23T08:02:57.729Z,101685.66
2022-09-23T08:05:30.206Z,101678.34
2022-09-23T08:08:02.390Z,101678.13
2022-09-23T08:10:34.515Z,101683.22
2022-09-23T08:13:06.429Z,101682.81
2022-09-23T08:15:39.151Z,101684.53
2022-09-23T08:18:11.149Z,101688.72
2022-09-23T08:20:47.988Z,101684.03
2022-09-23T08:23:20.499Z,101682.66
2022-09-23T08:26:03.047Z,101684.00
2022-09-23T08:28:36.114Z,101685.66
2022-09-23T08:31:08.510Z,101682.13
2022-09-23T08:33:41.092Z,101682.50
2022-09-23T08:36:13.876Z,101674.13
2022-09-23T08:38:45.972Z,101673.13
2022-09-23T08:41:27.208Z,101662.00
2022-09-23T08:44:12.046Z,101668.56
2022-09-23T08:46:48.021Z,101668.84
2022-09-23T08:49:27.319Z,101667.03
2022-09-23T08:52:00.153Z,101666.28
2022-09-23T08:54:32.220Z,101659.66
2022-09-23T08:57:05.817Z,101658.47
2022-09-23T08:59:43.054Z,101657.31
2022-09-23T09:02:22.052Z,101664.13
2022-09-23T09:05:00.132Z,101655.63
2022-09-23T09:07:37.725Z,101656.53
2022-09-23T09:10:10.300Z,101652.78
2022-09-23T09:12:45.768Z,101654.91
2022-09-23T09:15:24.706Z,101647.41
2022-09-23T09:18:20.054Z,101650.56
2022-09-23T09:21:00.678Z,101637.56
2022-09-23T09:23:35.463Z,101643.28
2022-09-23T09:26:12.225Z,101637.22
2022-09-23T09:28:59.097Z,101635.56
2022-09-23T09:31:42.737Z,101631.22
2022-09-23T09:34:41.274Z,101628.91
2022-09-23T09:37:25.329Z,101633.75
2022-09-23T09:39:57.262Z,101633.16
2022-09-23T09:42:40.726Z,101627.75
2022-09-23T09:45:20.094Z,101622.28
2022-09-23T09:48:10.928Z,101625.72
2022-09-23T09:50:51.926Z,101613.78
2022-09-23T09:53:29.421Z,101603.75
2022-09-23T09:56:05.849Z,101604.81
2022-09-23T09:58:53.510Z,101599.81
2022-09-23T10:01:28.899Z,101598.09
2022-09-23T10:04:05.790Z,101596.06
2022-09-23T10:06:37.999Z,101596.03
2022-09-23T10:09:17.345Z,101593.97
2022-09-23T10:12:04.733Z,101589.13
2022-09-23T10:14:37.454Z,101585.16
2022-09-23T10:17:15.928Z,101583.69
2022-09-23T10:19:50.403Z,101585.16
2022-09-23T10:22:24.973Z,101572.97
2022-09-23T10:25:01.194Z,101575.06
2022-09-23T10:27:35.827Z,101572.53
2022-09-23T10:30:22.941Z,101568.91
2022-09-23T10:32:57.101Z,101569.31
2022-09-23T10:35:33.482Z,101571.97
2022-09-23T10:38:05.584Z,101570.28
2022-09-23T10:41:00.480Z,101569.81
2022-09-23T10:44:15.033Z,101576.94
2022-09-23T10:47:04.883Z,101574.34
2022-09-23T10:50:03.593Z,101573.88
2022-09-23T10:52:42.907Z,101561.59
2022-09-23T10:55:41.268Z,101561.09
2022-09-23T10:58:50.614Z,101559.34
2022-09-23T11:01:31.695Z,101558.84
2022-09-23T11:04:14.635Z,101557.13
2022-09-23T11:06:46.655Z,101553.25
2022-09-23T11:09:49.519Z,101553.81
2022-09-23T11:12:37.132Z,101537.09
2022-09-23T11:15:16.786Z,101532.38
2022-09-23T11:18:07.144Z,101537.38
2022-09-23T11:21:16.993Z,101522.03
2022-09-23T11:24:16.029Z,101527.84
2022-09-23T11:26:59.802Z,101522.06
2022-09-23T11:29:50.675Z,101518.41
2022-09-23T11:32:48.714Z,101509.38
2022-09-23T11:35:59.285Z,101510.59
2022-09-23T11:38:41.064Z,101508.47
2022-09-23T11:41:19.147Z,101511.00
2022-09-23T11:43:56.153Z,101506.34
2022-09-23T11:46:36.289Z,101496.44
2022-09-23T11:49:19.312Z,101497.50
2022-09-23T11:52:05.380Z,101490.31
2022-09-23T11:55:23.259Z,101490.78
2022-09-23T11:58:00.088Z,101490.03
2022-09-23T12:00:36.136Z,101483.69
2022-09-23T12:03:32.627Z,101486.00
2022-09-23T12:06:15.821Z,101483.84
2022-09-23T12:08:51.676Z,101482.09
2022-09-23T12:11:30.766Z,101483.91
2022-09-23T12:14:25.863Z,101488.84
2022-09-23T12:17:07.232Z,101478.19
2022-09-23T12:19:39.576Z,101470.81
2022-09-23T12:22:37.674Z,101482.31
2022-09-23T12:25:22.435Z,101479.13
2022-09-23T12:27:55.834Z,101470.06
2022-09-23T12:30:30.460Z,101464.41
2022-09-23T12:33:24.808Z,101469.00
2022-09-23T12:36:13.876Z,101463.69
2022-09-23T12:38:51.680Z,101461.72
2022-09-23T12:41:24.096Z,101468.91
2022-09-23T12:44:00.791Z,101458.50
2022-09-23T12:46:32.993Z,101450.53
2022-09-23T12:49:08.617Z,101447.56
2022-09-23T12:52:12.937Z,101449.00
2022-09-23T12:54:51.525Z,101453.13
2022-09-23T12:57:35.478Z,101451.31
2022-09-23T13:00:12.142Z,101443.19
2022-09-23T13:02:46.739Z,101451.72
2022-09-23T13:05:42.491Z,101447.38
2022-09-23T13:08:23.970Z,101450.59
2022-09-23T13:10:56.739Z,101438.63
2022-09-23T13:13:33.352Z,101426.53
2022-09-23T13:16:22.358Z,101430.38
2022-09-23T13:19:02.582Z,101423.91
2022-09-23T13:21:43.689Z,101423.81
2022-09-23T13:24:31.245Z,101424.88
2022-09-23T13:27:07.026Z,101425.84
2022-09-23T13:29:46.660Z,101424.09
2022-09-23T13:32:20.295Z,101416.44
2022-09-23T13:35:00.426Z,101410.56
2022-09-23T13:37:42.911Z,101406.84
2022-09-23T13:40:25.433Z,101410.59
2022-09-23T13:43:03.740Z,101410.09
2022-09-23T13:45:41.474Z,101408.91
2022-09-23T13:48:16.281Z,101396.69
2022-09-23T13:50:50.587Z,101406.84
2022-09-23T13:53:31.911Z,101411.75
2022-09-23T13:56:10.079Z,101407.34
2022-09-23T13:58:43.358Z,101394.44
2022-09-23T14:01:35.036Z,101391.31
2022-09-23T14:04:23.253Z,101386.28
2022-09-23T14:06:56.149Z,101386.78
2022-09-23T14:09:29.816Z,101388.94
2022-09-23T14:12:02.597Z,101379.72
2022-09-23T14:14:37.116Z,101389.03
2022-09-23T14:17:10.334Z,101387.34
2022-09-23T14:19:42.605Z,101375.16
2022-09-23T14:22:30.547Z,101377.34
2022-09-23T14:25:03.530Z,101370.63
2022-09-23T14:27:39.717Z,101371.09
2022-09-23T14:30:15.932Z,101383.44
2022-09-23T14:32:47.940Z,101366.56
2022-09-23T14:35:24.210Z,101368.94
2022-09-23T14:38:16.499Z,101379.59
2022-09-23T14:40:53.676Z,101375.38
2022-09-23T14:43:28.570Z,101366.31
2022-09-23T14:46:00.806Z,101372.91
2022-09-23T14:48:35.974Z,101368.09
2022-09-23T14:51:10.930Z,101364.41
2022-09-23T14:53:46.943Z,101369.16
2022-09-23T14:56:21.160Z,101361.25
2022-09-23T14:58:57.735Z,101357.03
2022-09-23T15:01:33.435Z,101355.00
2022-09-23T15:04:30.872Z,101356.66
2022-09-23T15:07:07.032Z,101353.78
2022-09-23T15:09:41.241Z,101350.22
2022-09-23T15:12:20.674Z,101352.47
2022-09-23T15:14:54.684Z,101356.13
2022-09-23T15:17:33.626Z,101353.25
2022-09-23T15:20:08.454Z,101343.81
2022-09-23T15:22:48.835Z,101347.63
2022-09-23T15:25:41.177Z,101344.03
2022-09-23T15:28:13.089Z,101337.72
2022-09-23T15:30:45.707Z,101339.38
2022-09-23T15:33:17.770Z,101343.19
2022-09-23T15:35:50.028Z,101346.66
2022-09-23T15:38:22.190Z,101342.06
2022-09-23T15:40:54.344Z,101342.78
2022-09-23T15:43:26.889Z,101343.25
2022-09-23T15:46:00.061Z,101338.84
2022-09-23T15:48:38.677Z,101349.19
2022-09-23T15:51:14.621Z,101345.63
2022-09-23T15:53:47.762Z,101339.31
2022-09-23T15:56:19.782Z,101343.94
2022-09-23T15:58:51.629Z,101343.56
2022-09-23T16:01:28.111Z,101341.91
2022-09-23T16:04:04.312Z,101343.41
2022-09-23T16:06:36.588Z,101342.22
2022-09-23T16:09:10.424Z,101334.31
2022-09-23T16:11:46.105Z,101332.47
2022-09-23T16:14:18.465Z,101338.84
2022-09-23T16:16:50.461Z,101330.47
2022-09-23T16:19:22.523Z,101334.75
2022-09-23T16:21:54.549Z,101332.47
2022-09-23T16:24:28.305Z,101333.53
2022-09-23T16:27:03.052Z,101331.25
2022-09-23T16:29:35.074Z,101327.28
2022-09-23T16:32:07.057Z,101330.47
2022-09-23T16:34:38.882Z,101326.53
2022-09-23T16:37:16.669Z,101322.09
2022-09-23T16:39:49.804Z,101323.16
2022-09-23T16:42:22.293Z,101317.09
2022-09-23T16:44:54.126Z,101319.00
2022-09-23T16:47:26.115Z,101316.00
2022-09-23T16:49:58.036Z,101314.78
2022-09-23T16:52:31.033Z,101315.25
2022-09-23T16:55:02.985Z,101326.66
2022-09-23T16:57:37.269Z,101317.22
2022-09-23T17:00:32.383Z,101328.03
2022-09-23T17:03:24.060Z,101324.91
2022-09-23T17:05:56.175Z,101332.75
2022-09-23T17:08:28.077Z,101333.19
2022-09-23T17:11:00.606Z,101334.72
2022-09-23T17:13:32.705Z,101334.91
2022-09-23T17:16:04.995Z,101337.91
2022-09-23T17:18:38.815Z,101329.91
2022-09-23T17:21:10.665Z,101332.44
2022-09-23T17:23:42.731Z,101322.75
2022-09-23T17:26:15.179Z,101332.84
2022-09-23T17:28:47.374Z,101325.94
2022-09-23T17:31:19.510Z,101334.38
2022-09-23T17:33:52.725Z,101322.00
2022-09-23T17:36:24.655Z,101323.88
2022-09-23T17:38:56.691Z,101317.78
2022-09-23T17:41:29.734Z,101314.81
2022-09-23T17:44:01.802Z,101312.94
2022-09-23T17:46:33.746Z,101316.50
2022-09-23T17:49:07.971Z,101315.44
2022-09-23T17:51:40.521Z,101313.53
2022-09-23T17:54:14.903Z,101307.22
2022-09-23T17:56:46.857Z,101319.00
2022-09-23T17:59:19.040Z,101314.63
2022-09-23T18:01:50.932Z,101314.81
2022-09-23T18:04:23.011Z,101315.66
2022-09-23T18:06:55.193Z,101318.41
2022-09-23T18:09:27.091Z,101311.88
2022-09-23T18:11:58.938Z,101316.50
2022-09-23T18:14:30.817Z,101322.00
2022-09-23T18:17:02.671Z,101317.56
2022-09-23T18:19:34.554Z,101326.63
2022-09-23T18:22:06.439Z,101326.63
2022-09-23T18:24:41.063Z,101324.09
2022-09-23T18:27:13.134Z,101329.19
2022-09-23T18:29:45.083Z,101341.22
2022-09-23T18:32:17.247Z,101335.09
2022-09-23T18:34:49.313Z,101329.00
2022-09-23T18:37:21.388Z,101324.56
2022-09-23T18:39:53.262Z,101326.25
2022-09-23T18:42:26.968Z,101324.78
2022-09-23T18:44:58.865Z,101332.63
2022-09-23T18:47:49.704Z,101328.88
2022-09-23T18:50:40.253Z,101325.97
2022-09-23T18:53:12.067Z,101328.53
2022-09-23T18:55:43.913Z,101322.06
2022-09-23T18:58:15.798Z,101333.47
2022-09-23T19:00:50.240Z,101330.72
2022-09-23T19:03:22.127Z,101323.56
2022-09-23T19:05:54.370Z,101331.16
2022-09-23T19:08:26.869Z,101333.28
2022-09-23T19:11:00.295Z,101329.91
2022-09-23T19:13:33.476Z,101332.91
2022-09-23T19:16:09.874Z,101327.44
2022-09-23T19:18:43.711Z,101321.13
2022-09-23T19:21:17.420Z,101327.44
2022-09-23T19:23:51.465Z,101331.00
2022-09-23T19:26:26.273Z,101324.91
2022-09-23T19:28:59.690Z,101324.91
2022-09-23T19:31:34.100Z,101318.59
2022-09-23T19:34:10.684Z,101320.28
2022-09-23T19:36:44.831Z,101317.75
2022-09-23T19:39:22.287Z,101319.63
2022-09-23T19:41:55.790Z,101315.00
2022-09-23T19:44:27.998Z,101316.31
2022-09-23T19:46:59.942Z,101314.84
2022-09-23T19:49:31.981Z,101314.84
2022-09-23T19:52:03.906Z,101312.31
2022-09-23T19:54:35.807Z,101311.50
2022-09-23T19:57:08.952Z,101303.88
2022-09-23T19:59:42.042Z,101296.31
2022-09-23T20:02:14.142Z,101297.38
2022-09-23T20:04:46.066Z,101300.09
2022-09-23T20:07:19.256Z,101298.41
2022-09-23T20:09:51.068Z,101295.88
2022-09-23T20:12:23.317Z,101302.66
2022-09-23T20:14:55.222Z,101300.38
2022-09-23T20:17:28.029Z,101293.66
2022-09-23T20:20:00.032Z,101293.25
2022-09-23T20:22:34.027Z,101290.97
2022-09-23T20:25:09.348Z,101288.47
2022-09-23T20:27:41.205Z,101282.34
2022-09-23T20:30:13.186Z,101281.50
2022-09-23T20:32:45.617Z,101281.75
2022-09-23T20:35:17.444Z,101281.75
2022-09-23T20:37:51.963Z,101276.03
2022-09-23T20:40:24.089Z,101279.63
2022-09-23T20:42:55.991Z,101277.13
2022-09-23T20:45:27.935Z,101277.97
2022-09-23T20:48:00.156Z,101280.06
2022-09-23T20:50:32.090Z,101272.91
2022-09-23T20:53:04.097Z,101273.75
2022-09-23T20:55:36.027Z,101266.63
2022-09-23T20:58:07.838Z,101272.09
2022-09-23T21:00:41.410Z,101261.97
2022-09-23T21:03:13.603Z,101271.25
2022-09-23T21:05:45.754Z,101262.22
2022-09-23T21:08:17.620Z,101254.84
2022-09-23T21:10:56.509Z,101263.03
2022-09-23T21:13:29.026Z,101257.56
2022-09-23T21:16:05.352Z,101254.84
2022-09-23T21:18:38.242Z,101249.38
2022-09-23T21:21:11.275Z,101258.66
2022-09-23T21:23:43.499Z,101249.81
2022-09-23T21:26:20.771Z,101253.00
2022-09-23T21:28:57.788Z,101254.06
2022-09-23T21:31:38.726Z,101249.00
2022-09-23T21:34:11.431Z,101250.09
2022-09-23T21:36:44.156Z,101256.63
2022-09-23T21:39:16.064Z,101253.25
2022-09-23T21:41:48.063Z,101253.69
2022-09-23T21:44:20.086Z,101257.69
2022-09-23T21:46:52.208Z,101261.69
2022-09-23T21:49:24.187Z,101255.00
2022-09-23T21:51:58.958Z,101253.31
2022-09-23T21:54:32.048Z,101255.19
2022-09-23T21:57:03.976Z,101257.09
2022-09-23T21:59:35.826Z,101247.44
2022-09-23T22:02:08.001Z,101254.56
2022-09-23T22:04:39.928Z,101256.50
2022-09-23T22:07:12.084Z,101256.50
2022-09-23T22:09:46.924Z,101251.03
2022-09-23T22:12:18.887Z,101246.63
2022-09-23T22:14:51.590Z,101252.91
2022-09-23T22:17:23.699Z,101248.50
2022-09-23T22:19:55.776Z,101254.19
2022-09-23T22:22:27.691Z,101254.19
2022-09-23T22:24:59.779Z,101250.84
2022-09-23T22:27:31.623Z,101247.47
2022-09-23T22:30:22.512Z,101243.06
2022-09-23T22:32:55.266Z,101251.25
2022-09-23T22:35:27.384Z,101244.97
2022-09-23T22:38:01.053Z,101243.50
2022-09-23T22:40:33.029Z,101243.72
2022-09-23T22:43:04.981Z,101246.66
2022-09-23T22:45:37.679Z,101242.03
2022-09-23T22:48:09.569Z,101240.34
2022-09-23T22:50:41.833Z,101241.19
2022-09-23T22:53:14.135Z,101239.56
2022-09-23T22:55:46.037Z,101243.09
2022-09-23T22:58:31.678Z,101238.72
2022-09-23T23:01:05.439Z,101234.09
2022-09-23T23:03:38.269Z,101230.25
2022-09-23T23:06:10.288Z,101231.34
2022-09-23T23:08:42.259Z,101234.09
2022-09-23T23:11:14.163Z,101237.88
2022-09-23T23:13:46.020Z,101234.28
2022-09-23T23:16:18.016Z,101234.50
2022-09-23T23:18:50.002Z,101235.78
2022-09-23T23:21:22.478Z,101237.03
2022-09-23T23:23:54.303Z,101238.09
2022-09-23T23:26:28.320Z,101229.28
2022-09-23T23:29:01.473Z,101232.44
2022-09-23T23:31:33.570Z,101230.56
2022-09-23T23:34:08.327Z,101225.34
2022-09-23T23:36:41.443Z,101228.28
2022-09-23T23:39:13.951Z,101227.44
2022-09-23T23:41:45.868Z,101224.06
2022-09-23T23:44:17.711Z,101227.03
2022-09-23T23:46:49.720Z,101222.41
2022-09-23T23:49:21.984Z,101221.56
2022-09-23T23:51:54.067Z,101228.94
2022-09-23T23:54:25.966Z,101231.66
2022-09-23T23:56:57.986Z,101227.03
2022-09-23T23:59:29.943Z,101223.47
